createdAt,value
2023-02-11T00:00:59.597Z,33.97
2023-02-11T00:03:26.313Z,29.95
2023-02-11T00:06:04.697Z,37.97
2023-02-11T00:08:31.317Z,29.30
2023-02-11T00:10:58.715Z,31.67
2023-02-11T00:13:25.863Z,34.17
2023-02-11T00:15:53.301Z,33.10
2023-02-11T00:18:19.867Z,33.38
2023-02-11T00:20:46.421Z,33.25
2023-02-11T00:23:13.413Z,33.80
2023-02-11T00:25:44.910Z,31.20
2023-02-11T00:28:12.029Z,34.33
2023-02-11T00:30:38.751Z,34.38
2023-02-11T00:33:05.351Z,33.25
2023-02-11T00:35:31.878Z,34.30
2023-02-11T00:37:58.613Z,32.40
2023-02-11T00:40:25.207Z,31.23
2023-02-11T00:42:51.764Z,31.58
2023-02-11T00:45:20.907Z,31.10
2023-02-11T00:47:47.813Z,35.60
2023-02-11T00:50:14.373Z,33.75
2023-02-11T00:52:40.891Z,34.40
2023-02-11T00:55:07.703Z,33.75
2023-02-11T00:57:34.474Z,33.95
2023-02-11T01:00:01.194Z,34.45
2023-02-11T01:02:27.798Z,34.03
2023-02-11T01:04:54.549Z,33.80
2023-02-11T01:07:21.138Z,34.78
2023-02-11T01:09:47.624Z,33.97
2023-02-11T01:12:14.279Z,37.15
2023-02-11T01:14:41.179Z,35.65
2023-02-11T01:17:07.740Z,34.38
2023-02-11T01:19:34.335Z,36.92
2023-02-11T01:22:00.925Z,33.95
2023-02-11T01:24:27.447Z,34.17
2023-02-11T01:26:54.137Z,33.40
2023-02-11T01:29:20.707Z,32.03
2023-02-11T01:31:47.850Z,33.78
2023-02-11T01:34:14.420Z,34.25
2023-02-11T01:36:41.577Z,34.55
2023-02-11T01:39:09.297Z,35.00
2023-02-11T01:41:36.827Z,32.63
2023-02-11T01:44:25.359Z,33.00
2023-02-11T01:46:52.358Z,25.55
2023-02-11T01:49:25.150Z,34.25
2023-02-11T01:52:15.093Z,33.75
2023-02-11T01:55:04.497Z,35.88
2023-02-11T01:57:33.802Z,35.63
2023-02-11T02:00:17.954Z,36.25
2023-02-11T02:02:51.914Z,35.63
2023-02-11T02:05:27.471Z,34.85
2023-02-11T02:08:24.549Z,35.08
2023-02-11T02:10:56.371Z,33.85
2023-02-11T02:13:24.291Z,38.05
2023-02-11T02:15:53.953Z,33.85
2023-02-11T02:18:31.574Z,35.65
2023-02-11T02:21:32.750Z,28.40
2023-02-11T02:24:36.663Z,35.13
2023-02-11T02:27:27.467Z,34.13
2023-02-11T02:30:29.748Z,35.78
2023-02-11T02:33:28.721Z,36.33
2023-02-11T02:36:00.122Z,30.77
2023-02-11T02:38:53.049Z,35.95
2023-02-11T02:41:24.714Z,35.92
2023-02-11T02:43:51.911Z,29.27
2023-02-11T02:46:27.720Z,37.08
2023-02-11T02:48:55.361Z,33.72
2023-02-11T02:51:43.201Z,30.63
2023-02-11T02:54:31.356Z,33.30
2023-02-11T02:57:11.538Z,33.63
2023-02-11T03:00:08.842Z,36.15
2023-02-11T03:02:47.938Z,34.95
2023-02-11T03:05:19.415Z,33.83
2023-02-11T03:07:58.807Z,34.80
2023-02-11T03:10:33.287Z,37.38
2023-02-11T03:13:03.037Z,30.73
2023-02-11T03:15:33.999Z,36.35
2023-02-11T03:18:03.474Z,35.80
2023-02-11T03:20:33.364Z,34.00
2023-02-11T03:23:12.617Z,32.20
2023-02-11T03:25:45.688Z,35.72
2023-02-11T03:28:28.718Z,31.83
2023-02-11T03:31:25.655Z,33.25
2023-02-11T03:34:03.577Z,33.85
2023-02-11T03:36:45.791Z,30.08
2023-02-11T03:39:16.032Z,31.73
2023-02-11T03:41:43.901Z,36.13
2023-02-11T03:44:14.983Z,34.33
2023-02-11T03:46:48.127Z,34.03
2023-02-11T03:49:17.256Z,32.75
2023-02-11T03:51:44.555Z,29.60
2023-02-11T03:54:15.235Z,35.55
2023-02-11T03:57:02.376Z,31.80
2023-02-11T03:59:29.260Z,34.67
2023-02-11T04:01:56.509Z,31.83
2023-02-11T04:04:23.138Z,31.33
2023-02-11T04:06:51.947Z,33.17
2023-02-11T04:09:18.569Z,34.28
2023-02-11T04:11:45.263Z,32.88
2023-02-11T04:14:11.864Z,32.72
2023-02-11T04:16:38.410Z,30.77
2023-02-11T04:19:05.042Z,30.77
2023-02-11T04:21:31.617Z,31.52
2023-02-11T04:23:58.148Z,32.42
2023-02-11T04:26:24.643Z,31.55
2023-02-11T04:28:51.396Z,31.67
2023-02-11T04:31:18.009Z,30.80
2023-02-11T04:33:44.570Z,32.17
2023-02-11T04:36:11.118Z,27.90
2023-02-11T04:38:37.646Z,29.55
2023-02-11T04:41:05.547Z,30.48
2023-02-11T04:43:32.160Z,32.08
2023-02-11T04:45:58.973Z,31.08
2023-02-11T04:48:26.219Z,30.50
2023-02-11T04:50:52.850Z,29.85
2023-02-11T04:53:19.465Z,28.88
2023-02-11T04:55:50.859Z,30.13
2023-02-11T04:58:18.975Z,30.58
2023-02-11T05:00:46.075Z,32.35
2023-02-11T05:03:13.110Z,29.80
2023-02-11T05:05:41.119Z,31.92
2023-02-11T05:08:08.935Z,32.50
2023-02-11T05:10:35.880Z,28.58
2023-02-11T05:13:02.543Z,32.22
2023-02-11T05:15:30.585Z,28.80
2023-02-11T05:17:57.469Z,29.48
2023-02-11T05:20:23.965Z,31.98
2023-02-11T05:22:50.563Z,30.30
2023-02-11T05:25:17.053Z,30.08
2023-02-11T05:27:43.730Z,29.38
2023-02-11T05:30:10.882Z,30.33
2023-02-11T05:32:37.894Z,29.88
2023-02-11T05:35:04.836Z,29.10
2023-02-11T05:37:31.508Z,28.13
2023-02-11T05:39:58.016Z,25.30
2023-02-11T05:42:24.595Z,27.17
2023-02-11T05:44:51.240Z,29.70
2023-02-11T05:47:18.032Z,28.30
2023-02-11T05:49:44.815Z,28.63
2023-02-11T05:52:11.339Z,29.77
2023-02-11T05:54:38.190Z,25.38
2023-02-11T05:57:04.846Z,30.17
2023-02-11T05:59:31.489Z,28.77
2023-02-11T06:01:58.004Z,27.75
2023-02-11T06:04:24.845Z,27.65
2023-02-11T06:06:51.524Z,27.90
2023-02-11T06:09:18.016Z,29.70
2023-02-11T06:11:44.683Z,28.05
2023-02-11T06:14:11.249Z,28.55
2023-02-11T06:16:37.884Z,28.63
2023-02-11T06:19:04.420Z,28.48
2023-02-11T06:21:43.027Z,28.42
2023-02-11T06:24:10.887Z,30.63
2023-02-11T06:26:37.469Z,29.98
2023-02-11T06:29:04.057Z,28.85
2023-02-11T06:31:30.724Z,30.05
2023-02-11T06:33:58.443Z,28.13
2023-02-11T06:36:25.285Z,27.58
2023-02-11T06:38:53.177Z,29.08
2023-02-11T06:41:21.659Z,28.38
2023-02-11T06:43:48.954Z,29.27
2023-02-11T06:46:15.634Z,28.77
2023-02-11T06:48:44.730Z,17.90
2023-02-11T06:51:13.594Z,27.95
2023-02-11T06:53:42.649Z,24.45
2023-02-11T06:56:12.572Z,24.15
2023-02-11T06:58:39.287Z,25.27
2023-02-11T07:01:14.590Z,29.35
2023-02-11T07:03:43.321Z,27.23
2023-02-11T07:06:15.936Z,24.92
2023-02-11T07:11:26.938Z,27.08
2023-02-11T07:13:56.460Z,24.67
2023-02-11T07:16:24.376Z,23.90
2023-02-11T07:18:51.083Z,26.90
2023-02-11T07:21:20.584Z,26.40
2023-02-11T07:23:48.372Z,27.27
2023-02-11T07:26:18.195Z,26.17
2023-02-11T07:28:45.348Z,26.50
2023-02-11T07:31:20.834Z,26.80
2023-02-11T07:33:47.582Z,26.83
2023-02-11T07:36:15.929Z,18.83
2023-02-11T07:38:42.906Z,25.08
2023-02-11T07:41:15.978Z,26.45
2023-02-11T07:43:43.167Z,24.60
2023-02-11T07:46:15.815Z,24.77
2023-02-11T07:51:14.200Z,24.60
2023-02-11T07:53:41.150Z,26.40
2023-02-11T07:56:09.321Z,25.27
2023-02-11T07:58:36.789Z,24.85
2023-02-11T08:01:05.034Z,23.15
2023-02-11T08:03:32.903Z,24.73
2023-02-11T08:06:04.019Z,24.05
2023-02-11T08:08:30.564Z,24.52
2023-02-11T08:10:57.077Z,23.45
2023-02-11T08:13:23.729Z,24.13
2023-02-11T08:15:50.511Z,23.38
2023-02-11T08:18:17.219Z,24.10
2023-02-11T08:20:43.716Z,25.92
2023-02-11T08:23:10.269Z,24.42
2023-02-11T08:25:36.855Z,26.30
2023-02-11T08:28:03.641Z,23.92
2023-02-11T08:30:30.410Z,23.35
2023-02-11T08:32:56.997Z,25.48
2023-02-11T08:35:23.543Z,24.38
2023-02-11T08:37:50.143Z,24.23
2023-02-11T08:40:17.038Z,24.27
2023-02-11T08:42:43.703Z,24.52
2023-02-11T08:45:10.920Z,23.30
2023-02-11T08:47:37.510Z,24.58
2023-02-11T08:50:05.312Z,24.15
2023-02-11T08:52:31.807Z,23.20
2023-02-11T08:54:58.740Z,23.05
2023-02-11T08:57:25.352Z,25.70
2023-02-11T08:59:51.944Z,24.15
2023-02-11T09:02:18.488Z,34.35
2023-02-11T09:04:45.082Z,23.25
2023-02-11T09:07:12.539Z,30.48
2023-02-11T09:09:39.171Z,24.05
2023-02-11T09:12:06.085Z,22.00
2023-02-11T09:14:32.706Z,24.08
2023-02-11T09:16:59.282Z,24.48
2023-02-11T09:19:25.837Z,22.67
2023-02-11T09:21:52.359Z,25.58
2023-02-11T09:24:19.406Z,23.83
2023-02-11T09:26:46.069Z,24.38
2023-02-11T09:29:13.056Z,24.50
2023-02-11T09:31:40.056Z,18.92
2023-02-11T09:34:06.874Z,22.60
2023-02-11T09:36:37.416Z,23.90
2023-02-11T09:39:06.203Z,24.35
2023-02-11T09:41:54.990Z,24.50
2023-02-11T09:44:25.113Z,24.83
2023-02-11T09:46:57.973Z,26.00
2023-02-11T09:49:34.773Z,23.17
2023-02-11T09:52:23.500Z,25.40
2023-02-11T09:55:01.985Z,26.08
2023-02-11T09:57:35.901Z,24.88
2023-02-11T10:00:15.901Z,24.77
2023-02-11T10:03:06.397Z,25.92
2023-02-11T10:06:16.848Z,25.58
2023-02-11T10:09:08.553Z,28.38
2023-02-11T10:11:55.514Z,27.10
2023-02-11T10:14:36.419Z,29.08
2023-02-11T10:17:15.129Z,29.60
2023-02-11T10:20:03.995Z,28.40
2023-02-11T10:22:34.919Z,26.55
2023-02-11T10:25:17.165Z,25.85
2023-02-11T10:27:43.710Z,27.45
2023-02-11T10:30:16.850Z,26.92
2023-02-11T10:32:49.487Z,26.85
2023-02-11T10:35:21.156Z,24.65
2023-02-11T10:37:48.747Z,26.88
2023-02-11T10:40:29.637Z,25.63
2023-02-11T10:43:00.592Z,25.98
2023-02-11T10:45:36.892Z,25.55
2023-02-11T10:48:06.270Z,26.02
2023-02-11T10:50:34.966Z,25.55
2023-02-11T10:53:20.703Z,22.67
2023-02-11T10:55:52.405Z,24.83
2023-02-11T10:58:26.498Z,26.15
2023-02-11T11:00:55.653Z,25.02
2023-02-11T11:03:25.931Z,23.27
2023-02-11T11:05:59.843Z,24.33
2023-02-11T11:08:42.447Z,22.83
2023-02-11T11:14:03.258Z,22.15
2023-02-11T11:16:34.683Z,20.23
2023-02-11T11:19:07.252Z,26.17
2023-02-11T11:24:21.370Z,20.88
2023-02-11T11:26:51.044Z,24.55
2023-02-11T11:29:22.332Z,23.05
2023-02-11T11:31:53.887Z,24.85
2023-02-11T11:34:33.300Z,25.50
2023-02-11T11:37:09.577Z,24.77
2023-02-11T11:39:36.380Z,23.33
2023-02-11T11:42:05.724Z,20.90
2023-02-11T11:44:36.658Z,25.42
2023-02-11T11:47:12.426Z,23.90
2023-02-11T11:49:48.812Z,24.77
2023-02-11T11:52:39.540Z,23.63
2023-02-11T11:55:22.049Z,25.00
2023-02-11T11:57:49.258Z,21.00
2023-02-11T12:00:31.347Z,26.17
2023-02-11T12:03:19.270Z,24.25
2023-02-11T12:06:04.604Z,24.67
2023-02-11T12:09:00.576Z,23.92
2023-02-11T12:11:48.728Z,21.92
2023-02-11T12:14:23.569Z,26.35
2023-02-11T12:17:02.350Z,23.90
2023-02-11T12:19:31.917Z,24.80
2023-02-11T12:22:17.071Z,24.55
2023-02-11T12:24:43.609Z,24.85
2023-02-11T12:27:21.467Z,20.05
2023-02-11T12:30:24.376Z,24.05
2023-02-11T12:33:08.315Z,28.40
2023-02-11T12:35:58.845Z,24.30
2023-02-11T12:38:51.787Z,28.52
2023-02-11T12:44:29.808Z,23.00
2023-02-11T12:47:11.727Z,26.08
2023-02-11T12:49:55.242Z,26.02
2023-02-11T12:52:27.913Z,24.55
2023-02-11T12:55:26.815Z,19.63
2023-02-11T12:57:55.781Z,23.50
2023-02-11T13:00:26.673Z,24.02
2023-02-11T13:03:10.932Z,23.50
2023-02-11T13:05:52.700Z,22.35
2023-02-11T13:08:32.369Z,22.57
2023-02-11T13:11:03.779Z,22.13
2023-02-11T13:13:38.982Z,21.17
2023-02-11T13:16:13.319Z,21.90
2023-02-11T13:18:49.635Z,22.05
2023-02-11T13:21:16.452Z,21.73
2023-02-11T13:24:11.645Z,21.75
2023-02-11T13:26:49.961Z,21.73
2023-02-11T13:29:33.158Z,20.83
2023-02-11T13:32:19.929Z,20.35
2023-02-11T13:34:46.397Z,20.50
2023-02-11T13:37:21.197Z,20.15
2023-02-11T13:40:06.183Z,22.25
2023-02-11T13:42:44.723Z,20.50
2023-02-11T13:45:27.372Z,22.08
2023-02-11T13:50:26.288Z,20.73
2023-02-11T13:53:01.332Z,20.20
2023-02-11T13:55:29.490Z,19.27
2023-02-11T13:58:08.292Z,20.05
2023-02-11T14:00:34.864Z,18.58
2023-02-11T14:03:29.190Z,18.67
2023-02-11T14:06:26.801Z,18.83
2023-02-11T14:09:08.936Z,16.92
2023-02-11T14:11:41.797Z,16.85
2023-02-11T14:14:17.506Z,18.15
2023-02-11T14:17:02.410Z,17.33
2023-02-11T14:19:37.984Z,17.92
2023-02-11T14:22:19.122Z,18.00
2023-02-11T14:24:59.600Z,18.33
2023-02-11T14:27:40.249Z,21.42
2023-02-11T14:30:39.204Z,19.15
2023-02-11T14:33:35.598Z,18.98
2023-02-11T14:36:28.564Z,17.42
2023-02-11T14:39:03.207Z,17.75
2023-02-11T14:41:31.996Z,17.88
2023-02-11T14:44:01.741Z,17.15
2023-02-11T14:46:32.887Z,18.10
2023-02-11T14:49:05.446Z,19.00
2023-02-11T14:54:13.345Z,19.05
2023-02-11T14:56:40.081Z,25.00
2023-02-11T14:59:17.510Z,35.78
2023-02-11T15:01:48.741Z,25.08
2023-02-11T15:04:32.673Z,20.85
2023-02-11T15:07:11.141Z,18.58
2023-02-11T15:09:45.856Z,17.15
2023-02-11T15:12:32.662Z,15.68
2023-02-11T15:15:00.449Z,17.27
2023-02-11T15:17:31.729Z,17.63
2023-02-11T15:20:01.151Z,17.65
2023-02-11T15:22:36.544Z,18.17
2023-02-11T15:25:12.435Z,17.13
2023-02-11T15:27:51.496Z,15.70
2023-02-11T15:30:21.056Z,17.50
2023-02-11T15:33:02.956Z,18.55
2023-02-11T15:35:32.552Z,17.17
2023-02-11T15:37:59.695Z,16.13
2023-02-11T15:40:30.035Z,15.98
2023-02-11T15:43:04.881Z,18.05
2023-02-11T15:45:37.382Z,17.45
2023-02-11T15:50:40.618Z,15.13
2023-02-11T15:53:33.090Z,15.25
2023-02-11T15:56:25.109Z,14.93
2023-02-11T15:58:55.306Z,15.83
2023-02-11T16:01:37.243Z,15.82
2023-02-11T16:04:05.306Z,14.70
2023-02-11T16:06:41.298Z,13.98
2023-02-11T16:09:13.776Z,14.88
2023-02-11T16:14:29.460Z,13.70
2023-02-11T16:17:00.434Z,13.32
2023-02-11T16:19:28.378Z,13.77
2023-02-11T16:21:57.468Z,14.57
2023-02-11T16:24:31.804Z,15.50
2023-02-11T16:27:04.974Z,14.68
2023-02-11T16:29:35.210Z,15.07
2023-02-11T16:32:18.244Z,16.02
2023-02-11T16:34:44.911Z,14.90
2023-02-11T16:37:11.688Z,15.60
2023-02-11T16:39:38.440Z,15.77
2023-02-11T16:42:07.594Z,15.35
2023-02-11T16:44:35.081Z,15.23
2023-02-11T16:47:06.316Z,16.10
2023-02-11T16:49:36.960Z,16.50
2023-02-11T16:52:07.883Z,15.88
2023-02-11T16:54:34.795Z,16.90
2023-02-11T16:57:05.626Z,16.58
2023-02-11T16:59:32.241Z,15.70
2023-02-11T17:01:58.770Z,16.05
2023-02-11T17:04:28.249Z,15.02
2023-02-11T17:06:58.369Z,15.60
2023-02-11T17:09:30.488Z,16.02
2023-02-11T17:11:57.547Z,15.95
2023-02-11T17:14:24.327Z,17.23
2023-02-11T17:16:50.951Z,15.38
2023-02-11T17:19:22.366Z,17.00
2023-02-11T17:21:51.275Z,16.73
2023-02-11T17:24:19.348Z,16.33
2023-02-11T17:26:46.299Z,18.48
2023-02-11T17:29:16.246Z,17.40
2023-02-11T17:31:43.172Z,17.20
2023-02-11T17:34:10.981Z,19.27
2023-02-11T17:36:37.572Z,18.70
2023-02-11T17:39:07.692Z,19.20
2023-02-11T17:41:37.695Z,19.55
2023-02-11T17:44:05.364Z,19.58
2023-02-11T17:46:32.322Z,20.00
2023-02-11T17:48:59.496Z,19.90
2023-02-11T17:51:30.019Z,21.02
2023-02-11T17:54:02.793Z,20.38
2023-02-11T17:56:32.835Z,19.13
2023-02-11T17:58:59.655Z,19.85
2023-02-11T18:01:30.952Z,21.05
2023-02-11T18:03:57.684Z,20.15
2023-02-11T18:06:24.744Z,21.75
2023-02-11T18:08:51.247Z,19.55
2023-02-11T18:11:18.036Z,20.25
2023-02-11T18:13:45.352Z,20.75
2023-02-11T18:16:15.886Z,19.77
2023-02-11T18:18:43.187Z,21.38
2023-02-11T18:21:21.070Z,20.77
2023-02-11T18:23:50.089Z,19.77
2023-02-11T18:26:20.365Z,20.23
2023-02-11T18:28:47.906Z,20.35
2023-02-11T18:31:14.874Z,21.63
2023-02-11T18:33:42.379Z,20.60
2023-02-11T18:36:14.213Z,21.00
2023-02-11T18:38:41.809Z,22.23
2023-02-11T18:41:08.365Z,20.20
2023-02-11T18:43:35.790Z,20.23
2023-02-11T18:46:07.398Z,20.13
2023-02-11T18:48:34.024Z,19.67
2023-02-11T18:51:00.571Z,19.27
2023-02-11T18:53:27.141Z,20.48
2023-02-11T18:55:54.364Z,20.10
2023-02-11T18:58:23.952Z,20.13
2023-02-11T19:00:50.609Z,21.10
2023-02-11T19:03:17.255Z,19.10
2023-02-11T19:05:49.090Z,19.95
2023-02-11T19:08:16.986Z,20.95
2023-02-11T19:10:46.383Z,19.75
2023-02-11T19:13:13.376Z,20.80
2023-02-11T19:15:44.457Z,19.92
2023-02-11T19:18:12.396Z,19.92
2023-02-11T19:20:43.486Z,20.33
2023-02-11T19:23:10.892Z,21.05
2023-02-11T19:25:44.437Z,21.77
2023-02-11T19:28:13.272Z,29.45
2023-02-11T19:30:40.109Z,18.67
2023-02-11T19:33:08.975Z,19.45
2023-02-11T19:35:36.765Z,20.55
2023-02-11T19:38:06.347Z,20.75
2023-02-11T19:40:33.075Z,20.05
2023-02-11T19:43:00.143Z,20.35
2023-02-11T19:45:27.212Z,20.92
2023-02-11T19:47:57.422Z,17.13
2023-02-11T19:50:24.371Z,19.33
2023-02-11T19:52:50.969Z,19.60
2023-02-11T19:55:17.602Z,19.52
2023-02-11T19:57:44.280Z,20.10
2023-02-11T20:00:11.324Z,21.38
2023-02-11T20:02:39.145Z,19.67
2023-02-11T20:05:06.437Z,20.65
2023-02-11T20:07:33.037Z,19.98
2023-02-11T20:09:59.902Z,20.73
2023-02-11T20:12:26.453Z,20.50
2023-02-11T20:14:53.053Z,20.55
2023-02-11T20:17:19.539Z,21.38
2023-02-11T20:19:46.214Z,66.03
2023-02-11T20:22:12.806Z,21.75
2023-02-11T20:24:39.394Z,20.15
2023-02-11T20:27:08.368Z,20.67
2023-02-11T20:29:35.028Z,21.27
2023-02-11T20:32:02.945Z,19.52
2023-02-11T20:34:29.593Z,19.85
2023-02-11T20:36:56.368Z,20.65
2023-02-11T20:39:25.003Z,20.55
2023-02-11T20:41:53.221Z,22.27
2023-02-11T20:44:23.852Z,20.67
2023-02-11T20:46:51.732Z,19.13
2023-02-11T20:49:20.621Z,20.00
2023-02-11T20:51:48.016Z,19.35
2023-02-11T20:54:17.720Z,22.27
2023-02-11T20:56:47.832Z,21.65
2023-02-11T20:59:16.651Z,20.33
2023-02-11T21:01:46.343Z,20.77
2023-02-11T21:04:18.809Z,20.70
2023-02-11T21:06:50.398Z,21.00
2023-02-11T21:09:22.644Z,20.07
2023-02-11T21:11:53.752Z,19.42
2023-02-11T21:14:22.814Z,19.50
2023-02-11T21:16:49.720Z,21.27
2023-02-11T21:19:16.823Z,20.77
2023-02-11T21:21:43.599Z,20.65
2023-02-11T21:24:11.152Z,20.58
2023-02-11T21:26:38.150Z,20.25
2023-02-11T21:29:06.043Z,19.88
2023-02-11T21:31:34.629Z,20.90
2023-02-11T21:34:01.753Z,21.05
2023-02-11T21:36:29.371Z,20.65
2023-02-11T21:38:57.524Z,20.75
2023-02-11T21:41:24.766Z,21.95
2023-02-11T21:43:52.093Z,24.85
2023-02-11T21:46:20.617Z,20.02
2023-02-11T21:48:48.412Z,20.83
2023-02-11T21:51:17.905Z,20.15
2023-02-11T21:53:44.620Z,20.60
2023-02-11T21:56:14.359Z,21.35
2023-02-11T21:58:41.112Z,21.05
2023-02-11T22:01:14.859Z,20.27
2023-02-11T22:03:41.824Z,21.52
2023-02-11T22:06:10.441Z,19.95
2023-02-11T22:08:37.749Z,20.50
2023-02-11T22:11:06.139Z,19.85
2023-02-11T22:13:34.080Z,20.23
2023-02-11T22:16:02.455Z,20.38
2023-02-11T22:18:32.854Z,21.17
2023-02-11T22:21:05.298Z,22.20
2023-02-11T22:25:58.728Z,19.48
2023-02-11T22:28:26.122Z,21.15
2023-02-11T22:30:54.681Z,21.25
2023-02-11T22:33:22.311Z,20.30
2023-02-11T22:35:48.942Z,21.13
2023-02-11T22:38:15.835Z,21.55
2023-02-11T22:40:43.282Z,22.08
2023-02-11T22:43:10.228Z,21.52
2023-02-11T22:45:36.971Z,21.33
2023-02-11T22:48:03.670Z,20.30
2023-02-11T22:50:30.590Z,21.50
2023-02-11T22:52:57.633Z,20.98
2023-02-11T22:55:24.283Z,20.67
2023-02-11T22:57:50.775Z,21.77
2023-02-11T23:00:17.876Z,20.30
2023-02-11T23:02:44.531Z,21.52
2023-02-11T23:05:11.158Z,21.30
2023-02-11T23:07:37.696Z,20.75
2023-02-11T23:10:04.718Z,21.20
2023-02-11T23:12:31.421Z,20.60
2023-02-11T23:14:58.063Z,22.08
2023-02-11T23:17:24.944Z,20.75
2023-02-11T23:19:51.602Z,22.23
2023-02-11T23:22:18.187Z,22.98
2023-02-11T23:24:44.757Z,22.05
2023-02-11T23:27:11.358Z,22.35
2023-02-11T23:29:37.949Z,22.63
2023-02-11T23:32:05.294Z,23.55
2023-02-11T23:34:31.836Z,21.27
2023-02-11T23:36:59.570Z,22.05
2023-02-11T23:39:26.306Z,21.90
2023-02-11T23:41:58.841Z,20.83
2023-02-11T23:46:52.516Z,20.45
2023-02-11T23:49:19.104Z,20.92
2023-02-11T23:51:45.777Z,20.67
2023-02-11T23:54:13.815Z,20.77
2023-02-11T23:56:42.234Z,20.55
2023-02-11T23:59:09.031Z,20.27
